createdAt,value
2017-08-01T10:34:59.662Z,54.20
2017-08-01T11:19:34.485Z,56.52
2017-08-01T11:20:34.314Z,56.34
2017-08-01T11:21:34.305Z,56.34
2017-08-01T11:22:34.220Z,56.14
2017-08-01T11:23:34.151Z,55.07
2017-08-01T11:24:34.135Z,54.78
2017-08-01T11:25:33.834Z,54.97
2017-08-01T11:26:33.803Z,53.91
2017-08-01T11:27:33.713Z,54.10
2017-08-01T11:28:33.622Z,53.91
2017-08-01T11:29:33.563Z,54.58
2017-08-01T11:30:33.525Z,54.49
2017-08-01T11:31:33.381Z,53.93
2017-08-01T11:32:33.320Z,54.03
2017-08-01T11:33:33.205Z,54.32
2017-08-01T11:34:33.144Z,53.83
2017-08-01T11:35:33.220Z,54.13
2017-08-01T11:36:32.980Z,54.80
2017-08-01T11:37:33.049Z,54.90
2017-08-01T11:38:32.841Z,55.49
2017-08-01T11:39:32.936Z,54.80
2017-08-01T11:40:33.057Z,54.61
2017-08-01T11:41:32.660Z,54.32
2017-08-01T11:42:32.527Z,54.52
2017-08-01T13:45:26.651Z,54.52
2017-08-01T13:46:26.531Z,54.29
2017-08-01T13:47:26.434Z,55.36
2017-08-01T13:48:26.411Z,54.97
2017-08-01T13:49:26.300Z,55.98
2017-08-01T13:50:26.202Z,55.00
2017-08-01T13:51:26.131Z,55.68
2017-08-01T13:52:26.052Z,55.36
2017-08-01T13:53:25.945Z,54.90
2017-08-01T13:54:25.966Z,55.07
2017-08-01T13:55:25.827Z,54.80
2017-08-01T13:56:25.746Z,54.32
2017-08-01T13:57:25.641Z,54.90
2017-08-01T13:58:25.576Z,54.52
2017-08-01T13:59:25.613Z,55.39
2017-08-01T14:00:25.427Z,54.78
2017-08-01T14:01:25.352Z,54.80
2017-08-01T14:02:25.259Z,55.17
2017-08-01T14:03:25.195Z,54.39
2017-08-01T14:04:25.039Z,54.78
2017-08-01T14:05:25.042Z,54.90
2017-08-01T14:06:24.820Z,55.29
2017-08-01T14:07:24.896Z,55.78
2017-08-01T14:08:24.828Z,56.07
2017-08-01T14:09:24.807Z,54.90
2017-08-01T14:10:24.658Z,56.16
2017-08-01T14:11:24.584Z,56.16
2017-08-01T14:12:24.514Z,55.29
2017-08-01T14:13:24.439Z,55.58
2017-08-01T14:14:24.358Z,54.90
2017-08-01T14:15:24.326Z,54.90
2017-08-01T14:16:24.202Z,55.58
2017-08-01T14:17:24.161Z,54.42
2017-08-01T14:18:24.135Z,54.80
2017-08-01T14:19:23.982Z,54.32
2017-08-01T14:20:23.943Z,53.54
2017-08-01T14:21:23.844Z,53.54
2017-08-01T14:22:23.617Z,53.93
2017-08-01T14:23:23.664Z,53.16
